Time;durP1;ratioP1;P1;durP2;ratioP2;P2;SDS_P1;SDS_P2;PMS_P1;PMS_P2;Temp;Humidity;BMP_temperature;BMP_pressure;BME280_temperature;BME280_humidity;BME280_pressure;Samples;Min_cycle;Max_cycle;Signal;HPM_P1;HPM_P2
2022/03/15 00:02:18;;;;;;;;;7.00;7.00;;;;;11.98;51.69;102017.19;5074809;27;45511;-68
2022/03/15 00:04:44;;;;;;;;;12.75;7.75;;;;;11.88;51.97;102007.38;5075311;27;45428;-67
2022/03/15 00:07:15;;;;;;;;;7.75;6.25;;;;;11.98;52.13;102026.78;5076160;27;45484;-69
2022/03/15 00:09:42;;;;;;;;;7.25;5.75;;;;;12.00;51.70;102030.34;5079095;27;46461;-67
2022/03/15 00:12:09;;;;;;;;;8.50;7.00;;;;;12.02;51.82;102023.38;5079731;28;45395;-67
2022/03/15 00:14:36;;;;;;;;;8.50;6.25;;;;;11.96;51.73;102012.75;5079399;27;45380;-67
2022/03/15 00:17:04;;;;;;;;;5.75;3.50;;;;;11.98;52.45;102008.41;5075693;27;45416;-68
2022/03/15 00:19:30;;;;;;;;;8.00;8.00;;;;;12.07;52.09;102016.44;5074428;27;45626;-69
2022/03/15 00:21:55;;;;;;;;;13.25;7.75;;;;;12.04;51.93;102017.28;5072834;27;45456;-68
2022/03/15 00:24:22;;;;;;;;;9.50;8.75;;;;;11.94;52.00;102002.25;5076596;28;45758;-67
2022/03/15 00:26:48;;;;;;;;;9.50;7.75;;;;;11.86;51.94;101999.47;5076575;27;45394;-67
2022/03/15 00:29:17;;;;;;;;;8.75;8.50;;;;;11.91;52.45;102009.16;5074717;27;46002;-68
2022/03/15 00:31:44;;;;;;;;;10.00;8.75;;;;;11.92;52.81;102017.09;5074772;27;46600;-67
2022/03/15 00:34:11;;;;;;;;;9.75;7.50;;;;;11.80;52.66;102004.59;5073453;27;45604;-69
2022/03/15 00:36:37;;;;;;;;;12.50;7.75;;;;;11.79;52.45;102010.72;5075606;27;45490;-67
2022/03/15 00:39:04;;;;;;;;;8.75;8.25;;;;;11.79;52.93;102008.09;5094104;27;45645;-67
2022/03/15 00:41:30;;;;;;;;;9.50;8.00;;;;;11.78;52.75;102013.31;5078566;27;45479;-68
2022/03/15 00:43:56;;;;;;;;;14.00;8.50;;;;;11.70;53.05;102010.56;5090693;27;45303;-68
2022/03/15 00:46:22;;;;;;;;;9.25;7.00;;;;;11.55;53.28;101978.78;5097874;27;45502;-67
2022/03/15 00:48:47;;;;;;;;;10.75;7.75;;;;;11.49;53.11;101965.56;5093354;27;45487;-68
2022/03/15 00:51:13;;;;;;;;;10.50;8.50;;;;;11.75;53.04;102010.63;5094456;27;45439;-69
2022/03/15 00:53:38;;;;;;;;;8.50;7.00;;;;;11.72;52.79;101990.47;5094217;27;45381;-70
2022/03/15 00:56:04;;;;;;;;;11.50;7.25;;;;;11.66;52.99;101979.84;5094262;27;45676;-68
2022/03/15 00:58:30;;;;;;;;;8.25;7.50;;;;;11.85;53.20;101996.81;5093857;27;46123;-67
2022/03/15 01:00:56;;;;;;;;;8.75;7.00;;;;;11.88;53.02;101997.75;5093516;27;45427;-67
2022/03/15 01:03:22;;;;;;;;;7.25;7.00;;;;;11.91;52.69;101993.41;5097708;27;45534;-69
2022/03/15 01:05:47;;;;;;;;;10.00;8.75;;;;;11.91;52.86;101989.03;5098248;27;45585;-67
2022/03/15 01:08:14;;;;;;;;;9.75;8.00;;;;;11.92;52.96;101990.81;5095759;27;46106;-68
2022/03/15 01:10:41;;;;;;;;;11.00;8.50;;;;;11.90;52.85;101992.53;5110281;27;45464;-68
2022/03/15 01:13:06;;;;;;;;;7.50;6.75;;;;;11.82;53.05;101971.38;5093775;27;45491;-68
2022/03/15 01:15:41;;;;;;;;;8.00;8.00;;;;;11.90;52.80;101986.41;5093745;27;45531;-69
2022/03/15 01:18:07;;;;;;;;;5.00;3.25;;;;;11.89;53.36;101988.16;5093413;27;45656;-68
2022/03/15 01:20:33;;;;;;;;;6.50;6.00;;;;;11.88;53.28;101981.13;5093548;27;45283;-67
2022/03/15 01:22:58;;;;;;;;;7.50;7.50;;;;;11.88;53.17;101982.00;5089529;27;45362;-68
2022/03/15 01:25:24;;;;;;;;;9.50;7.00;;;;;11.81;52.95;101956.47;5093916;27;45980;-67
2022/03/15 01:27:52;;;;;;;;;11.50;8.00;;;;;11.82;52.94;101952.13;5093680;27;45550;-68
2022/03/15 01:30:17;;;;;;;;;7.50;7.00;;;;;11.92;53.05;101969.81;5093673;27;45274;-68
2022/03/15 01:32:43;;;;;;;;;11.50;7.25;;;;;11.83;52.88;101944.25;5093986;27;45306;-69
2022/03/15 01:35:10;;;;;;;;;9.75;8.00;;;;;11.89;53.29;101946.16;5088553;27;45361;-68
2022/03/15 01:37:36;;;;;;;;;9.50;7.50;;;;;11.96;53.17;101955.00;5109370;27;47175;-69
2022/03/15 01:40:02;;;;;;;;;9.00;5.50;;;;;11.69;52.97;101906.41;5093728;27;45314;-67
2022/03/15 01:42:28;;;;;;;;;6.75;4.75;;;;;12.06;53.34;101954.28;5097123;27;45458;-68
2022/03/15 01:44:53;;;;;;;;;7.50;2.50;;;;;12.12;52.87;101949.13;5093793;27;46041;-68
2022/03/15 01:47:19;;;;;;;;;3.50;2.75;;;;;12.13;53.13;101950.91;5093592;27;45746;-68
2022/03/15 01:49:45;;;;;;;;;7.50;4.75;;;;;12.10;53.42;101940.31;5093514;27;45613;-69
2022/03/15 01:52:13;;;;;;;;;9.75;6.50;;;;;12.07;53.15;101925.41;5093837;27;45629;-69
2022/03/15 01:54:40;;;;;;;;;8.75;6.75;;;;;12.14;53.05;101942.16;5096299;27;45521;-68
2022/03/15 01:57:07;;;;;;;;;9.25;8.75;;;;;12.01;53.45;101920.09;5114411;27;46387;-69
2022/03/15 01:59:35;;;;;;;;;7.50;5.50;;;;;12.09;53.39;101930.69;5101651;27;45883;-71
2022/03/15 02:02:00;;;;;;;;;8.25;7.75;;;;;12.04;53.95;101917.50;5095290;27;45340;-70
2022/03/15 02:04:26;;;;;;;;;8.00;5.25;;;;;12.05;53.90;101927.16;5097778;27;45455;-69
2022/03/15 02:07:09;;;;;;;;;12.50;9.00;;;;;11.97;54.26;101914.75;5099168;27;45511;-69
2022/03/15 02:09:35;;;;;;;;;10.00;9.00;;;;;12.04;54.37;101914.88;5100746;27;45258;-69
2022/03/15 02:12:01;;;;;;;;;8.50;7.00;;;;;12.05;54.95;101924.53;5097399;27;45468;-69
2022/03/15 02:14:27;;;;;;;;;10.50;5.25;;;;;11.92;55.10;101905.94;5097248;27;45863;-68
2022/03/15 02:16:53;;;;;;;;;9.00;7.75;;;;;11.95;55.91;101906.84;5097571;27;46526;-69
2022/03/15 02:19:19;;;;;;;;;9.75;8.50;;;;;11.83;55.97;101888.25;5100423;27;45511;-70
2022/03/15 02:21:45;;;;;;;;;10.75;8.25;;;;;11.58;56.30;101855.50;5101452;27;46176;-68
2022/03/15 02:24:11;;;;;;;;;7.75;7.00;;;;;11.82;57.01;101889.13;5104784;27;45218;-69
2022/03/15 02:26:36;;;;;;;;;8.75;8.75;;;;;11.86;57.35;101899.72;5100226;27;45481;-69
2022/03/15 02:29:02;;;;;;;;;6.25;5.25;;;;;11.74;57.26;101881.13;5101265;27;45408;-68
2022/03/15 02:31:28;;;;;;;;;11.25;7.75;;;;;11.81;57.84;101896.09;5100631;27;45313;-70
2022/03/15 02:33:57;;;;;;;;;8.50;8.00;;;;;11.60;58.05;101861.66;5117755;27;45350;-68
2022/03/15 02:36:23;;;;;;;;;11.25;8.75;;;;;11.48;58.69;101841.34;5117707;27;46962;-68
2022/03/15 02:38:49;;;;;;;;;13.00;10.75;;;;;11.71;58.72;101880.19;5100840;27;45424;-68
2022/03/15 02:41:18;;;;;;;;;9.25;9.25;;;;;11.68;59.05;101879.28;5115992;27;45685;-70
2022/03/15 02:43:44;;;;;;;;;8.75;8.75;;;;;11.67;59.36;101876.63;5102354;27;45446;-69
2022/03/15 02:46:11;;;;;;;;;9.00;7.00;;;;;11.62;59.48;101876.56;5098934;27;45990;-68
2022/03/15 02:48:36;;;;;;;;;7.75;7.50;;;;;11.61;59.99;101876.56;5090880;27;45976;-68
2022/03/15 02:51:08;;;;;;;;;12.25;7.75;;;;;11.48;59.72;101850.97;5086849;27;45353;-68
2022/03/15 02:53:37;;;;;;;;;9.00;8.00;;;;;11.59;60.32;101868.66;5082652;27;45400;-68
2022/03/15 02:56:04;;;;;;;;;10.75;8.00;;;;;11.50;60.35;101862.38;5076451;27;46160;-68
2022/03/15 02:58:30;;;;;;;;;10.75;8.75;;;;;11.55;60.62;101866.81;5077726;27;45522;-68
2022/03/15 03:00:56;;;;;;;;;11.00;8.50;;;;;11.25;61.67;101820.00;5078138;28;45358;-69
2022/03/15 03:03:23;;;;;;;;;8.25;8.25;;;;;11.45;62.03;101857.03;5074754;27;45637;-69
2022/03/15 03:05:48;;;;;;;;;9.25;9.25;;;;;11.37;62.52;101848.19;5076150;27;45909;-69
2022/03/15 03:08:16;;;;;;;;;11.75;9.00;;;;;11.30;63.06;101839.31;5075784;27;45447;-69
2022/03/15 03:10:41;;;;;;;;;11.00;8.50;;;;;11.41;62.99;101848.25;5077432;28;45469;-68
2022/03/15 03:13:09;;;;;;;;;9.25;5.25;;;;;11.40;63.14;101856.09;5078116;27;45344;-68
2022/03/15 03:15:35;;;;;;;;;6.25;6.00;;;;;11.35;63.85;101853.41;5077797;27;46359;-68
2022/03/15 03:18:00;;;;;;;;;14.00;8.75;;;;;11.25;64.06;101841.00;5076312;28;45368;-69
2022/03/15 03:20:26;;;;;;;;;11.50;9.25;;;;;11.30;64.36;101854.19;5076136;27;45310;-67
2022/03/15 03:22:53;;;;;;;;;9.75;7.50;;;;;11.24;64.93;101852.31;5080339;27;45337;-68
2022/03/15 03:25:19;;;;;;;;;9.50;8.50;;;;;11.25;64.87;101851.47;5078747;28;45810;-67
2022/03/15 03:27:46;;;;;;;;;9.50;8.50;;;;;11.27;64.45;101848.88;5076009;27;45449;-66
2022/03/15 03:30:12;;;;;;;;;12.50;9.00;;;;;11.30;65.14;101851.56;5076442;27;45490;-68
2022/03/15 03:32:38;;;;;;;;;11.25;9.25;;;;;11.11;65.23;101827.63;5075973;27;45425;-69
2022/03/15 03:35:04;;;;;;;;;9.75;9.00;;;;;11.23;65.98;101851.44;5075874;27;46104;-68
2022/03/15 03:37:36;;;;;;;;;9.50;9.25;;;;;11.21;66.31;101852.28;5075546;28;45689;-66
2022/03/15 03:40:07;;;;;;;;;12.25;11.25;;;;;11.18;67.18;101854.84;5081347;27;45489;-68
2022/03/15 03:42:34;;;;;;;;;12.00;10.75;;;;;11.14;67.18;101853.91;5075624;27;45416;-68
2022/03/15 03:44:59;;;;;;;;;10.25;9.50;;;;;11.10;67.93;101845.97;5075744;27;45412;-70
2022/03/15 03:47:25;;;;;;;;;8.75;8.75;;;;;11.10;67.80;101845.97;5074985;27;45444;-68
2022/03/15 03:49:50;;;;;;;;;10.75;10.75;;;;;10.98;67.87;101823.91;5075732;27;45359;-68
2022/03/15 03:52:16;;;;;;;;;14.50;11.50;;;;;11.04;68.49;101818.78;5075899;27;45397;-69
2022/03/15 03:54:41;;;;;;;;;14.75;11.25;;;;;11.13;68.75;101839.03;5075651;27;46328;-69
2022/03/15 03:57:07;;;;;;;;;13.50;12.50;;;;;11.07;69.20;101835.44;5075446;28;45435;-69
2022/03/15 03:59:33;;;;;;;;;10.75;10.75;;;;;10.98;69.05;101830.88;5078134;27;45377;-66
2022/03/15 04:01:58;;;;;;;;;10.00;9.25;;;;;10.95;69.25;101831.72;5079406;27;45488;-69
2022/03/15 04:04:25;;;;;;;;;12.75;10.25;;;;;11.02;69.65;101833.59;5074987;27;46564;-69
2022/03/15 04:06:51;;;;;;;;;10.25;10.00;;;;;10.93;69.59;101822.06;5084702;27;45595;-67
2022/03/15 04:09:17;;;;;;;;;11.00;9.00;;;;;11.02;69.77;101827.47;5095419;27;45659;-69
2022/03/15 04:11:43;;;;;;;;;11.75;10.00;;;;;10.91;69.84;101803.69;5096090;27;45749;-68
2022/03/15 04:14:12;;;;;;;;;12.25;10.50;;;;;10.92;70.12;101815.06;5098450;27;47272;-69
2022/03/15 04:16:39;;;;;;;;;11.50;11.25;;;;;10.90;70.24;101812.41;5095898;27;45718;-70
2022/03/15 04:19:05;;;;;;;;;19.00;13.50;;;;;10.91;70.51;101822.03;5094397;27;45668;-68
2022/03/15 04:21:31;;;;;;;;;9.75;8.50;;;;;10.73;70.67;101791.16;5095615;27;45431;-67
2022/03/15 04:23:56;;;;;;;;;13.75;11.50;;;;;10.88;71.29;101816.75;5095640;27;46115;-67
2022/03/15 04:26:24;;;;;;;;;11.00;9.50;;;;;10.81;71.11;101805.25;5095010;27;45792;-66
2022/03/15 04:28:50;;;;;;;;;9.25;9.25;;;;;10.85;71.37;101814.06;5091909;27;45626;-69
2022/03/15 04:31:16;;;;;;;;;8.75;8.75;;;;;10.70;71.94;101788.47;5089240;27;45533;-67
2022/03/15 04:33:42;;;;;;;;;11.25;9.75;;;;;10.79;71.68;101806.09;5078074;27;45605;-70
2022/03/15 04:36:11;;;;;;;;;9.00;8.00;;;;;10.80;71.49;101790.41;5087662;27;45875;-67
2022/03/15 04:38:37;;;;;;;;;14.00;10.00;;;;;10.89;71.18;101810.66;5094815;27;45401;-69
2022/03/15 04:41:05;;;;;;;;;10.75;10.75;;;;;10.88;71.72;101806.25;5095502;27;45377;-67
2022/03/15 04:43:32;;;;;;;;;12.75;11.25;;;;;10.93;71.44;101804.59;5087069;27;45474;-67
2022/03/15 04:45:59;;;;;;;;;12.50;11.25;;;;;10.68;71.95;101757.84;5092627;27;45801;-68
2022/03/15 04:48:25;;;;;;;;;11.75;11.50;;;;;10.89;71.95;101799.28;5095298;27;45493;-68
2022/03/15 04:50:51;;;;;;;;;12.50;9.25;;;;;10.90;71.97;101794.06;5097842;27;45404;-67
2022/03/15 04:53:18;;;;;;;;;8.75;8.50;;;;;10.95;72.16;101799.41;5095014;27;45995;-68
2022/03/15 04:55:44;;;;;;;;;8.00;8.00;;;;;10.86;71.70;101773.91;5093504;27;45512;-68
2022/03/15 04:58:09;;;;;;;;;11.75;8.00;;;;;10.88;72.10;101785.28;5094803;27;45511;-69
2022/03/15 05:00:35;;;;;;;;;13.50;8.50;;;;;10.87;72.37;101774.78;5097008;27;45534;-69
2022/03/15 05:03:00;;;;;;;;;10.50;9.75;;;;;11.06;72.04;101802.19;5098048;27;45446;-69
2022/03/15 05:05:26;;;;;;;;;9.75;9.25;;;;;11.07;72.04;101798.72;5094130;27;45447;-69
2022/03/15 05:07:51;;;;;;;;;11.75;9.75;;;;;11.07;71.91;101794.34;5109837;27;45559;-69
2022/03/15 05:13:01;;;;;;;;;10.50;10.25;;;;;11.14;71.67;101782.22;5093386;27;45834;-68
2022/03/15 05:15:27;;;;;;;;;9.00;9.00;;;;;11.18;71.63;101786.69;5094081;27;45509;-70
2022/03/15 05:17:53;;;;;;;;;13.25;11.75;;;;;11.10;71.81;101757.69;5096591;27;45413;-69
2022/03/15 05:20:19;;;;;;;;;8.25;8.25;;;;;11.34;71.87;101795.66;5093664;27;45427;-68
2022/03/15 05:22:44;;;;;;;;;10.25;10.25;;;;;11.38;71.90;101800.09;5093251;27;45958;-70
2022/03/15 05:25:14;;;;;;;;;8.00;8.00;;;;;11.31;71.90;101779.88;5096435;27;45754;-70
2022/03/15 05:27:41;;;;;;;;;12.00;11.50;;;;;11.40;71.61;101788.78;5088290;27;46048;-69
2022/03/15 05:30:08;;;;;;;;;13.75;11.00;;;;;11.37;71.42;101780.84;5092635;27;46093;-70
2022/03/15 05:32:33;;;;;;;;;13.25;8.75;;;;;11.39;72.06;101787.03;5097580;27;45523;-70
2022/03/15 05:34:59;;;;;;;;;8.50;8.25;;;;;11.42;71.77;101783.56;5097493;27;45552;-70
2022/03/15 05:37:25;;;;;;;;;8.25;8.25;;;;;11.49;71.61;101793.28;5097422;27;45539;-68
2022/03/15 05:39:51;;;;;;;;;13.50;10.50;;;;;11.39;71.33;101784.41;5097188;27;45629;-69
2022/03/15 05:42:17;;;;;;;;;9.25;8.50;;;;;11.44;71.89;101780.09;5096397;27;45553;-68
2022/03/15 05:44:42;;;;;;;;;13.25;10.00;;;;;11.54;71.64;101802.09;5097152;27;45479;-69
2022/03/15 05:47:08;;;;;;;;;9.00;8.75;;;;;11.53;71.71;101788.94;5096722;27;45280;-68
2022/03/15 05:49:34;;;;;;;;;10.75;8.50;;;;;11.43;71.45;101770.44;5095871;27;45429;-69
2022/03/15 05:52:00;;;;;;;;;7.25;7.25;;;;;11.57;71.56;101790.75;5096743;27;45298;-68
2022/03/15 05:54:26;;;;;;;;;11.00;8.50;;;;;11.26;71.60;101740.47;5112469;27;45515;-68
2022/03/15 05:56:51;;;;;;;;;11.25;9.50;;;;;11.46;71.53;101778.38;5096759;27;45357;-69
2022/03/15 05:59:17;;;;;;;;;12.25;9.50;;;;;11.60;71.53;101803.91;5080262;27;45408;-72
2022/03/15 06:01:46;;;;;;;;;13.00;11.00;;;;;11.49;71.78;101777.53;5086970;27;46286;-70
2022/03/15 06:04:16;;;;;;;;;13.25;8.25;;;;;11.60;71.81;101796.06;5090071;27;45574;-69
2022/03/15 06:06:42;;;;;;;;;14.50;10.00;;;;;11.58;72.32;101806.53;5109171;27;45630;-68
2022/03/15 06:09:07;;;;;;;;;9.00;9.00;;;;;11.43;72.24;101790.56;5097218;27;46107;-71
2022/03/15 06:11:34;;;;;;;;;12.25;11.50;;;;;11.47;72.07;101787.13;5101155;27;46682;-70
2022/03/15 06:14:00;;;;;;;;;10.25;10.25;;;;;11.62;71.83;101810.97;5095444;27;45533;-69
2022/03/15 06:16:26;;;;;;;;;11.50;10.75;;;;;11.58;72.57;101808.25;5093039;27;45346;-70
2022/03/15 06:18:52;;;;;;;;;12.25;10.25;;;;;11.37;72.28;101772.13;5096593;27;45420;-70
2022/03/15 06:21:33;;;;;;;;;9.00;9.00;;;;;11.55;72.18;101808.22;5096354;27;45454;-70
2022/03/15 06:24:00;;;;;;;;;9.00;8.75;;;;;11.62;71.78;101812.72;5096690;27;45525;-72
2022/03/15 06:26:26;;;;;;;;;7.25;7.25;;;;;11.66;72.05;101809.28;5111821;27;45377;-68
2022/03/15 06:28:52;;;;;;;;;12.25;9.25;;;;;11.61;71.89;101795.22;5096839;27;45848;-69
2022/03/15 06:31:17;;;;;;;;;11.00;9.75;;;;;11.70;71.76;101808.47;5098529;27;45416;-67
2022/03/15 06:33:44;;;;;;;;;11.50;11.50;;;;;11.70;71.57;101811.09;5113488;27;45470;-70
2022/03/15 06:36:11;;;;;;;;;17.25;13.25;;;;;11.57;71.81;101790.75;5095118;27;45427;-70
2022/03/15 06:38:40;;;;;;;;;13.25;13.00;;;;;11.60;72.09;101801.31;5090831;27;46436;-70
2022/03/15 06:41:07;;;;;;;;;14.75;12.75;;;;;11.66;72.17;101812.78;5099071;27;45570;-70
2022/03/15 06:43:33;;;;;;;;;14.75;10.75;;;;;11.64;71.94;101804.00;5099965;27;45500;-70
2022/03/15 06:45:59;;;;;;;;;15.50;11.50;;;;;11.58;72.01;101803.00;5098686;27;45339;-69
2022/03/15 06:48:25;;;;;;;;;14.50;14.00;;;;;11.52;72.10;101793.31;5096851;27;45316;-69
2022/03/15 06:50:52;;;;;;;;;14.50;13.00;;;;;11.48;72.79;101801.13;5096703;27;45449;-70
2022/03/15 06:53:18;;;;;;;;;14.00;14.00;;;;;11.34;72.90;101807.06;5096832;27;45451;-68
2022/03/15 06:55:44;;;;;;;;;14.00;13.75;;;;;11.33;72.88;101797.41;5094769;27;45588;-71
2022/03/15 06:58:09;;;;;;;;;15.50;12.50;;;;;11.40;72.89;101811.50;5098099;27;45523;-68
2022/03/15 07:00:35;;;;;;;;;15.00;14.25;;;;;11.39;72.92;101807.09;5100672;27;45967;-70
2022/03/15 07:03:01;;;;;;;;;18.50;15.00;;;;;11.34;73.12;101793.03;5099191;27;45330;-70
2022/03/15 07:05:27;;;;;;;;;24.50;17.00;;;;;11.35;73.21;101786.94;5099637;27;45363;-69
2022/03/15 07:07:55;;;;;;;;;19.25;17.25;;;;;11.32;73.69;101784.25;5114965;27;45731;-69
2022/03/15 07:10:21;;;;;;;;;20.00;17.75;;;;;11.32;73.27;101800.91;5097607;27;47109;-69
2022/03/15 07:12:47;;;;;;;;;16.75;14.75;;;;;11.16;73.50;101777.91;5097988;27;45482;-69
2022/03/15 07:15:13;;;;;;;;;18.25;17.25;;;;;11.34;73.20;101809.69;5116537;27;45381;-68
2022/03/15 07:17:51;;;;;;;;;15.25;15.25;;;;;11.32;73.68;101805.22;5094660;27;45439;-70
2022/03/15 07:20:18;;;;;;;;;13.50;12.50;;;;;11.31;73.83;101799.13;5084939;27;45257;-69
2022/03/15 07:22:43;;;;;;;;;14.25;13.00;;;;;11.31;73.54;101800.84;5097273;27;45258;-69
2022/03/15 07:25:09;;;;;;;;;17.25;14.50;;;;;11.39;73.50;101812.34;5101992;27;45905;-68
2022/03/15 07:27:35;;;;;;;;;19.50;16.00;;;;;11.36;73.38;101799.19;5097997;27;45392;-68
2022/03/15 07:30:01;;;;;;;;;17.75;16.75;;;;;11.32;73.22;101786.88;5100078;27;46251;-70
2022/03/15 07:32:26;;;;;;;;;15.75;15.75;;;;;11.27;73.24;101781.59;5099351;27;45420;-70
2022/03/15 07:34:52;;;;;;;;;16.25;16.25;;;;;11.46;73.23;101820.34;5098453;27;45353;-68
2022/03/15 07:37:18;;;;;;;;;19.50;16.00;;;;;11.43;73.27;101815.03;5100653;27;45512;-70
2022/03/15 07:39:45;;;;;;;;;14.00;13.25;;;;;11.52;73.34;101824.81;5098740;27;45429;-67
2022/03/15 07:42:11;;;;;;;;;22.00;16.75;;;;;11.52;72.76;101816.94;5101936;27;45326;-68
2022/03/15 07:44:44;;;;;;;;;18.00;16.25;;;;;11.54;72.99;101814.34;5099334;27;45447;-70
2022/03/15 07:47:19;;;;;;;;;20.00;16.50;;;;;11.58;72.81;101800.38;5098660;27;46037;-71
2022/03/15 07:49:47;;;;;;;;;20.50;20.50;;;;;11.54;73.09;101795.97;5097573;27;45474;-69
2022/03/15 07:52:28;;;;;;;;;17.75;15.50;;;;;11.51;73.43;101795.91;5099691;27;45277;-70
2022/03/15 07:55:00;;;;;;;;;18.00;18.00;;;;;11.58;73.49;101808.25;5115846;27;45775;-70
2022/03/15 07:57:26;;;;;;;;;22.00;15.75;;;;;11.58;73.16;101793.44;5097766;27;45426;-69
2022/03/15 07:59:52;;;;;;;;;18.25;14.25;;;;;11.58;73.28;101793.44;5092687;27;45480;-67
2022/03/15 08:02:21;;;;;;;;;19.50;17.00;;;;;11.51;73.26;101783.69;5097726;27;46574;-67
2022/03/15 08:04:47;;;;;;;;;17.75;17.75;;;;;11.58;73.28;101801.28;5099223;27;45936;-68
2022/03/15 08:07:12;;;;;;;;;19.75;18.25;;;;;11.40;73.37;101762.53;5099399;27;45326;-69
2022/03/15 08:09:38;;;;;;;;;18.00;16.50;;;;;11.58;73.04;101790.81;5078359;28;45401;-68
2022/03/15 08:12:05;;;;;;;;;19.50;16.50;;;;;11.52;73.00;101771.47;5091571;27;45379;-69
2022/03/15 08:14:33;;;;;;;;;17.75;16.50;;;;;11.64;72.98;101788.25;5095665;27;45358;-67
2022/03/15 08:16:59;;;;;;;;;23.00;20.00;;;;;11.68;72.92;101807.56;5095540;27;45703;-70
2022/03/15 08:19:26;;;;;;;;;18.50;16.75;;;;;11.60;73.13;101791.72;5094762;27;46262;-68
2022/03/15 08:21:58;;;;;;;;;25.00;21.25;;;;;11.64;72.41;101800.50;5090466;27;46364;-67
2022/03/15 08:24:24;;;;;;;;;20.75;18.50;;;;;11.53;73.19;101773.22;5092702;27;45430;-68
2022/03/15 08:26:50;;;;;;;;;25.25;23.25;;;;;11.64;72.96;101795.25;5100139;27;45464;-69
2022/03/15 08:29:16;;;;;;;;;32.00;23.50;;;;;11.58;72.77;101777.69;5099794;27;45392;-68
2022/03/15 08:31:42;;;;;;;;;27.00;22.25;;;;;11.65;73.18;101787.41;5100041;27;45293;-67
2022/03/15 08:34:08;;;;;;;;;27.50;25.00;;;;;11.54;73.09;101767.13;5098882;27;45451;-69
2022/03/15 08:36:35;;;;;;;;;24.50;23.25;;;;;11.66;73.43;101790.91;5100138;27;45356;-70
2022/03/15 08:39:00;;;;;;;;;20.25;19.00;;;;;11.68;73.41;101795.31;5098416;27;45451;-68
2022/03/15 08:41:26;;;;;;;;;18.25;18.25;;;;;11.63;72.88;101794.38;5095402;27;45487;-67
2022/03/15 08:43:53;;;;;;;;;25.50;23.00;;;;;11.70;72.69;101804.94;5098575;27;45334;-68
2022/03/15 08:46:18;;;;;;;;;28.50;19.75;;;;;11.73;72.64;101812.88;5096871;27;45644;-67
2022/03/15 08:48:44;;;;;;;;;25.75;20.75;;;;;11.66;72.63;101796.16;5094298;27;45348;-68
2022/03/15 08:51:09;;;;;;;;;22.75;19.50;;;;;11.37;72.59;101745.88;5094065;27;45333;-67
2022/03/15 08:53:35;;;;;;;;;24.00;22.25;;;;;11.75;73.25;101808.53;5094385;27;45686;-69
2022/03/15 08:56:02;;;;;;;;;25.75;21.00;;;;;11.78;72.90;101811.19;5095034;27;45615;-69
2022/03/15 08:58:27;;;;;;;;;24.00;21.50;;;;;11.59;72.98;101781.19;5093469;27;45655;-68
2022/03/15 09:00:53;;;;;;;;;21.50;20.00;;;;;11.70;72.82;101805.84;5093477;27;45517;-68
2022/03/15 09:03:19;;;;;;;;;26.50;19.25;;;;;11.67;72.16;101808.41;5093884;27;45420;-68
2022/03/15 09:05:45;;;;;;;;;20.25;18.00;;;;;11.78;72.68;101817.31;5094067;27;45381;-68
2022/03/15 09:08:10;;;;;;;;;25.75;23.00;;;;;11.71;72.68;101794.47;5097168;27;46636;-68
2022/03/15 09:10:36;;;;;;;;;30.50;26.25;;;;;11.70;72.82;101797.97;5091400;27;45450;-67
2022/03/15 09:13:06;;;;;;;;;24.25;22.25;;;;;11.76;72.61;101811.16;5094921;27;46405;-68
2022/03/15 09:15:31;;;;;;;;;27.75;22.25;;;;;11.82;72.72;101826.13;5109311;27;45568;-69
2022/03/15 09:17:57;;;;;;;;;22.25;17.50;;;;;11.86;72.49;101831.47;5093626;27;45963;-69
2022/03/15 09:20:26;;;;;;;;;23.75;20.75;;;;;11.86;72.56;101820.94;5093630;27;45483;-68
2022/03/15 09:22:53;;;;;;;;;22.50;20.50;;;;;11.90;72.76;101819.28;5093788;27;45403;-67
2022/03/15 09:25:19;;;;;;;;;28.25;18.00;;;;;11.77;72.54;101799.81;5094343;27;45527;-68
2022/03/15 09:27:47;;;;;;;;;26.75;24.75;;;;;11.76;72.39;101807.66;5096657;27;46545;-67
2022/03/15 09:30:13;;;;;;;;;29.25;23.75;;;;;11.85;72.88;101828.78;5093949;27;45317;-68
2022/03/15 09:32:39;;;;;;;;;24.50;24.50;;;;;11.86;73.10;101825.28;5093659;27;45499;-69
2022/03/15 09:35:06;;;;;;;;;28.00;23.25;;;;;11.68;73.30;101787.44;5094011;27;45666;-68
2022/03/15 09:37:32;;;;;;;;;34.00;27.25;;;;;11.57;73.47;101765.41;5095282;27;46895;-69
2022/03/15 09:39:58;;;;;;;;;20.50;15.25;;;;;11.80;73.24;101801.59;5073465;27;45406;-69
2022/03/15 09:42:25;;;;;;;;;28.75;24.25;;;;;11.89;73.29;101799.16;5074925;27;45512;-70
2022/03/15 09:44:51;;;;;;;;;29.75;28.50;;;;;11.75;73.20;101779.66;5078370;27;45345;-69
2022/03/15 09:47:17;;;;;;;;;25.25;24.75;;;;;11.56;73.02;101750.53;5076587;28;46749;-69
2022/03/15 09:49:45;;;;;;;;;31.75;30.50;;;;;11.85;73.16;101786.78;5078091;28;45283;-69
2022/03/15 09:52:11;;;;;;;;;36.75;26.75;;;;;11.87;73.09;101791.25;5074451;27;45505;-69
2022/03/15 09:54:39;;;;;;;;;25.25;23.75;;;;;11.95;73.51;101795.72;5091565;27;45900;-69
2022/03/15 09:57:06;;;;;;;;;25.75;22.25;;;;;11.96;73.54;101792.22;5093648;27;45498;-68
2022/03/15 09:59:32;;;;;;;;;29.50;21.75;;;;;11.82;72.87;101756.13;5094915;27;45485;-67
2022/03/15 10:01:59;;;;;;;;;22.50;21.25;;;;;11.64;73.40;101714.78;5094096;27;45301;-69
2022/03/15 10:04:26;;;;;;;;;21.25;18.25;;;;;12.04;72.88;101782.69;5093918;27;45454;-68
2022/03/15 10:06:53;;;;;;;;;25.50;22.75;;;;;12.00;73.25;101773.88;5097913;27;46134;-68
2022/03/15 10:09:21;;;;;;;;;27.00;23.00;;;;;12.03;73.20;101775.66;5098479;27;45316;-69
2022/03/15 10:11:47;;;;;;;;;23.50;21.00;;;;;12.01;72.65;101780.03;5096187;27;45414;-68
2022/03/15 10:14:15;;;;;;;;;24.75;19.50;;;;;11.99;72.89;101768.63;5094069;27;45723;-69
2022/03/15 10:16:42;;;;;;;;;21.00;16.75;;;;;12.09;72.53;101781.00;5089846;27;46219;-69
2022/03/15 10:19:10;;;;;;;;;17.50;16.75;;;;;11.95;72.30;101753.69;5083402;27;45305;-68
2022/03/15 10:21:45;;;;;;;;;25.50;20.50;;;;;12.17;73.03;101781.09;5098573;27;45272;-69
2022/03/15 10:24:17;;;;;;;;;25.25;23.00;;;;;12.20;72.74;101774.16;5098128;27;45773;-71
2022/03/15 10:26:44;;;;;;;;;20.00;20.00;;;;;12.22;72.42;101772.44;5112929;27;47926;-69
2022/03/15 10:29:13;;;;;;;;;23.00;20.50;;;;;12.19;72.27;101764.50;5097554;27;45532;-68
2022/03/15 10:31:40;;;;;;;;;24.00;23.25;;;;;12.14;72.86;101752.19;5113514;27;45393;-70
2022/03/15 10:34:08;;;;;;;;;27.50;21.50;;;;;11.99;72.53;101735.38;5112780;27;45421;-70
2022/03/15 10:36:41;;;;;;;;;24.50;22.00;;;;;11.81;72.81;101698.34;5097415;27;46214;-71
2022/03/15 10:39:09;;;;;;;;;28.00;23.75;;;;;11.93;72.43;101732.66;5097640;27;45517;-71
2022/03/15 10:41:51;;;;;;;;;24.25;21.00;;;;;12.14;72.92;101758.31;5112556;27;45450;-71
2022/03/15 10:44:28;;;;;;;;;25.50;23.50;;;;;12.16;72.85;101761.84;5112648;27;45479;-70
2022/03/15 10:47:13;;;;;;;;;22.00;20.00;;;;;11.96;72.88;101729.19;5112270;27;46779;-69
2022/03/15 10:49:47;;;;;;;;;24.25;20.50;;;;;11.95;72.84;101724.81;5112959;27;45688;-68
2022/03/15 10:52:14;;;;;;;;;29.50;23.00;;;;;12.06;73.08;101755.59;5096934;27;45838;-70
2022/03/15 10:54:42;;;;;;;;;27.00;23.25;;;;;12.17;73.20;101762.72;5097121;27;45460;-70
2022/03/15 10:57:13;;;;;;;;;25.75;24.50;;;;;12.05;73.62;101739.81;5119260;27;47051;-71
2022/03/15 10:59:43;;;;;;;;;28.75;26.00;;;;;11.89;73.41;101709.88;5101505;27;45476;-70
2022/03/15 11:02:12;;;;;;;;;23.50;23.50;;;;;11.83;73.62;101699.25;5116937;27;45389;-71
2022/03/15 11:04:48;;;;;;;;;32.50;25.75;;;;;12.15;72.96;101754.84;5101374;27;45428;-69
2022/03/15 11:07:14;;;;;;;;;28.25;22.00;;;;;12.12;72.88;101738.16;5112463;27;46741;-69
2022/03/15 11:09:39;;;;;;;;;27.00;26.25;;;;;12.14;73.35;101742.56;5097179;27;45476;-68
2022/03/15 11:12:07;;;;;;;;;24.25;24.25;;;;;12.18;73.54;101739.09;5098687;27;45478;-70
2022/03/15 11:14:49;;;;;;;;;33.50;30.50;;;;;12.28;73.39;101753.22;5096432;27;45585;-69
2022/03/15 11:17:20;;;;;;;;;30.75;30.50;;;;;12.30;73.30;101747.13;5096331;27;45478;-69